Time;durP1;ratioP1;P1;durP2;ratioP2;P2;SDS_P1;SDS_P2;PMS_P1;PMS_P2;Temp;Humidity;BMP_temperature;BMP_pressure;BME280_temperature;BME280_humidity;BME280_pressure;Samples;Min_cycle;Max_cycle;Signal;HPM_P1;HPM_P2
2022/10/26 00:00:50;;;;;;;5.17;3.33;;;18.20;63.50;;;;;;5047532;28;20719;-55
2022/10/26 00:03:16;;;;;;;7.40;3.00;;;18.30;63.60;;;;;;5046798;28;20324;-52
2022/10/26 00:05:42;;;;;;;6.67;2.87;;;18.30;63.30;;;;;;5042977;28;20439;-53
2022/10/26 00:08:08;;;;;;;5.23;3.23;;;18.20;63.00;;;;;;5043432;28;20972;-54
2022/10/26 00:10:35;;;;;;;9.33;4.40;;;18.20;63.40;;;;;;5041224;28;20819;-55
2022/10/26 00:13:01;;;;;;;4.30;3.47;;;18.30;63.50;;;;;;5041568;28;20461;-54
2022/10/26 00:15:26;;;;;;;6.67;3.00;;;18.30;63.00;;;;;;5043197;28;20443;-54
2022/10/26 00:17:52;;;;;;;2.90;2.70;;;18.20;63.50;;;;;;5048825;28;20216;-55
2022/10/26 00:20:18;;;;;;;4.37;3.30;;;18.20;63.70;;;;;;5044731;28;20220;-53
2022/10/26 00:22:43;;;;;;;8.97;3.50;;;18.30;63.70;;;;;;5045896;28;20652;-54
2022/10/26 00:25:09;;;;;;;6.23;3.47;;;18.30;63.30;;;;;;5045116;28;20671;-54
2022/10/26 00:27:35;;;;;;;3.70;3.40;;;18.40;63.20;;;;;;5045138;28;20195;-53
2022/10/26 00:30:02;;;;;;;4.13;3.33;;;18.40;63.10;;;;;;5045972;28;20283;-55
2022/10/26 00:32:27;;;;;;;6.87;3.50;;;18.40;62.90;;;;;;5040871;28;20349;-55
2022/10/26 00:34:53;;;;;;;8.40;3.40;;;18.40;63.10;;;;;;5046514;28;20922;-55
2022/10/26 00:37:19;;;;;;;6.37;3.90;;;18.30;63.30;;;;;;5040802;28;20319;-54
2022/10/26 00:39:44;;;;;;;4.43;3.03;;;18.20;63.60;;;;;;5039798;28;20312;-53
2022/10/26 00:42:17;;;;;;;10.50;4.07;;;18.00;64.10;;;;;;5044743;28;21730;-54
2022/10/26 00:44:46;;;;;;;4.13;3.27;;;18.00;64.80;;;;;;5038379;28;20212;-55
2022/10/26 00:47:27;;;;;;;8.47;3.73;;;18.00;64.70;;;;;;5040622;28;20447;-54
2022/10/26 00:49:56;;;;;;;4.57;3.27;;;17.90;64.70;;;;;;5044626;28;21004;-55
2022/10/26 00:52:22;;;;;;;4.60;3.40;;;17.60;65.70;;;;;;5047571;28;20435;-55
2022/10/26 00:54:49;;;;;;;3.20;2.90;;;17.40;67.10;;;;;;5041670;28;21008;-54
2022/10/26 00:57:16;;;;;;;8.60;3.10;;;17.40;67.30;;;;;;5046424;28;20457;-54
2022/10/26 00:59:44;;;;;;;4.23;3.30;;;17.60;66.70;;;;;;5039142;28;20466;-54
2022/10/26 01:02:10;;;;;;;7.07;3.40;;;17.80;66.30;;;;;;5043823;28;20439;-54
2022/10/26 01:04:36;;;;;;;7.87;3.37;;;17.90;65.40;;;;;;5047843;28;20474;-54
2022/10/26 01:07:03;;;;;;;4.90;3.50;;;17.90;65.30;;;;;;5048299;28;20831;-55
2022/10/26 01:09:30;;;;;;;5.03;3.60;;;18.00;65.00;;;;;;5041063;28;20618;-55
2022/10/26 01:11:55;;;;;;;7.63;3.20;;;18.10;64.80;;;;;;5045072;28;20451;-52
2022/10/26 01:14:23;;;;;;;7.50;3.30;;;18.00;64.80;;;;;;5039779;28;20780;-55
2022/10/26 01:17:03;;;;;;;5.63;3.30;;;18.10;64.80;;;;;;5046903;28;20192;-54
2022/10/26 01:20:08;;;;;;;5.33;2.97;;;18.00;65.00;;;;;;5039850;28;20469;-55
2022/10/26 01:22:43;;;;;;;4.20;3.00;;;18.10;65.10;;;;;;5046742;28;20450;-55
2022/10/26 01:25:27;;;;;;;5.40;2.97;;;18.10;64.90;;;;;;5046216;28;20450;-54
2022/10/26 01:27:53;;;;;;;3.13;2.83;;;18.10;64.80;;;;;;5043845;28;20533;-55
2022/10/26 01:30:33;;;;;;;6.17;3.00;;;18.20;64.90;;;;;;5044209;28;20577;-55
2022/10/26 01:33:20;;;;;;;5.10;2.90;;;18.10;65.30;;;;;;5047776;28;20451;-55
2022/10/26 01:35:53;;;;;;;8.37;3.47;;;18.10;65.40;;;;;;5038694;28;20812;-55
2022/10/26 01:38:40;;;;;;;5.43;3.40;;;17.80;65.60;;;;;;5045791;28;20487;-55
2022/10/26 01:41:14;;;;;;;3.40;3.10;;;17.70;66.70;;;;;;5050654;28;21016;-56
2022/10/26 01:43:44;;;;;;;4.50;3.30;;;17.90;66.70;;;;;;5049265;28;20456;-56
2022/10/26 01:46:12;;;;;;;3.73;3.33;;;17.90;66.40;;;;;;5043279;28;20473;-55
2022/10/26 01:48:40;;;;;;;3.97;3.23;;;17.90;66.30;;;;;;5044512;28;20447;-57
2022/10/26 01:51:08;;;;;;;8.13;3.57;;;17.90;66.20;;;;;;5043882;28;20439;-55
2022/10/26 01:53:33;;;;;;;3.80;2.83;;;18.00;66.10;;;;;;5046002;28;20443;-55
2022/10/26 01:56:01;;;;;;;5.23;3.50;;;18.00;66.00;;;;;;5041802;28;20793;-55
2022/10/26 01:59:00;;;;;;;5.33;3.70;;;18.00;65.90;;;;;;5048620;28;20200;-55
2022/10/26 02:01:49;;;;;;;5.07;4.10;;;18.00;66.00;;;;;;5050372;28;20497;-55
2022/10/26 02:04:35;;;;;;;5.40;3.50;;;18.10;66.10;;;;;;5044865;28;20455;-58
2022/10/26 02:07:21;;;;;;;4.20;3.37;;;18.10;65.80;;;;;;5045852;28;20455;-57
2022/10/26 02:10:27;;;;;;;4.70;3.27;;;18.00;66.00;;;;;;5046107;28;20470;-57
2022/10/26 02:13:04;;;;;;;4.10;3.07;;;17.90;67.00;;;;;;4969720;28;20454;-57
2022/10/26 02:15:48;;;;;;;6.13;3.13;;;17.70;66.80;;;;;;5038836;28;20538;-57
2022/10/26 02:18:36;;;;;;;4.20;2.70;;;17.30;69.60;;;;;;5045291;28;20946;-58
2022/10/26 02:21:12;;;;;;;8.23;3.10;;;17.40;69.90;;;;;;5045325;28;20487;-57
2022/10/26 02:23:40;;;;;;;4.77;2.70;;;17.50;69.80;;;;;;5046738;28;20473;-57
2022/10/26 02:26:09;;;;;;;4.97;2.97;;;17.50;69.60;;;;;;5048634;28;20997;-57
2022/10/26 02:28:38;;;;;;;5.83;2.70;;;17.60;69.30;;;;;;5049229;28;20447;-57
2022/10/26 02:31:07;;;;;;;4.47;2.60;;;17.70;69.10;;;;;;5040751;28;20802;-57
2022/10/26 02:33:37;;;;;;;5.50;3.30;;;17.70;68.80;;;;;;5043348;28;20813;-57
2022/10/26 02:36:07;;;;;;;3.60;3.30;;;17.40;69.70;;;;;;5046414;28;20502;-57
2022/10/26 02:38:34;;;;;;;3.40;2.53;;;17.50;70.00;;;;;;5048197;28;20506;-57
2022/10/26 02:41:01;;;;;;;13.00;4.73;;;17.60;69.60;;;;;;5047643;28;20993;-57
2022/10/26 02:43:29;;;;;;;3.30;2.80;;;17.70;69.00;;;;;;5038144;28;20490;-57
2022/10/26 02:46:01;;;;;;;5.73;3.00;;;17.70;68.70;;;;;;5049855;28;20568;-57
2022/10/26 02:48:27;;;;;;;3.37;3.07;;;17.80;68.60;;;;;;5047758;28;20443;-57
2022/10/26 02:51:03;;;;;;;4.23;3.50;;;17.80;68.30;;;;;;5046762;28;20443;-57
2022/10/26 02:53:42;;;;;;;5.20;2.93;;;17.90;68.10;;;;;;5026296;28;20655;-58
2022/10/26 02:56:25;;;;;;;4.73;3.00;;;18.00;68.00;;;;;;5045235;28;20688;-58
2022/10/26 02:58:56;;;;;;;6.73;3.20;;;18.00;67.90;;;;;;5049516;28;20457;-57
2022/10/26 03:01:22;;;;;;;3.80;2.90;;;18.10;67.80;;;;;;5045200;28;20506;-58
2022/10/26 03:03:48;;;;;;;4.47;3.03;;;18.10;67.70;;;;;;5044436;28;20919;-58
2022/10/26 03:06:21;;;;;;;7.63;2.50;;;18.10;67.50;;;;;;5049063;28;20939;-57
2022/10/26 03:08:47;;;;;;;8.47;3.10;;;18.10;67.40;;;;;;5042703;28;20994;-58
2022/10/26 03:11:13;;;;;;;3.57;2.70;;;18.10;67.50;;;;;;5037487;28;20436;-57
2022/10/26 03:13:38;;;;;;;6.60;3.00;;;18.00;67.20;;;;;;5038906;28;20192;-57
2022/10/26 03:16:04;;;;;;;6.90;2.90;;;18.00;67.40;;;;;;5042780;28;20199;-58
2022/10/26 03:18:29;;;;;;;3.73;3.10;;;18.00;67.30;;;;;;5045394;28;20273;-57
2022/10/26 03:20:55;;;;;;;3.30;2.80;;;17.90;67.60;;;;;;5041077;28;20220;-57
2022/10/26 03:23:21;;;;;;;3.27;2.87;;;17.90;67.50;;;;;;5047129;28;20193;-58
2022/10/26 03:25:46;;;;;;;3.10;2.90;;;17.90;67.90;;;;;;5046792;28;20204;-57
2022/10/26 03:28:13;;;;;;;4.80;2.80;;;17.90;67.70;;;;;;5042010;28;20652;-57
2022/10/26 03:30:38;;;;;;;4.13;3.03;;;18.00;67.60;;;;;;5042879;28;20327;-58
2022/10/26 03:33:04;;;;;;;3.80;2.53;;;18.00;67.30;;;;;;5044140;28;20525;-57
2022/10/26 03:35:29;;;;;;;5.50;2.53;;;18.10;67.30;;;;;;5048545;28;20232;-57
2022/10/26 03:37:55;;;;;;;2.70;2.50;;;18.10;67.20;;;;;;5041639;28;20232;-58
2022/10/26 03:40:21;;;;;;;3.17;2.33;;;18.20;67.40;;;;;;5043307;28;20228;-57
2022/10/26 03:42:46;;;;;;;2.93;2.73;;;18.20;67.40;;;;;;5041945;28;20620;-57
2022/10/26 03:45:12;;;;;;;3.43;2.57;;;18.20;67.50;;;;;;5044608;28;20189;-57
2022/10/26 03:47:48;;;;;;;5.77;3.20;;;18.20;67.60;;;;;;5048803;28;20254;-57
2022/10/26 03:50:16;;;;;;;8.97;3.10;;;18.20;67.50;;;;;;5040561;28;20208;-58
2022/10/26 03:52:42;;;;;;;7.10;3.60;;;18.20;68.00;;;;;;5044218;28;20431;-57
2022/10/26 03:55:08;;;;;;;4.60;2.53;;;18.20;67.80;;;;;;5033989;28;20474;-57
2022/10/26 03:57:39;;;;;;;3.20;2.90;;;18.20;67.70;;;;;;5041267;28;20226;-57
2022/10/26 04:00:05;;;;;;;6.90;3.37;;;18.20;67.50;;;;;;5045802;28;20552;-58
2022/10/26 04:02:31;;;;;;;4.20;3.17;;;18.00;67.90;;;;;;5039966;28;20470;-58
2022/10/26 04:04:56;;;;;;;6.23;2.57;;;17.80;68.60;;;;;;5043342;28;20796;-58
2022/10/26 04:07:22;;;;;;;7.13;2.93;;;17.80;69.10;;;;;;5042842;28;20226;-57
2022/10/26 04:09:47;;;;;;;2.97;2.70;;;17.50;69.80;;;;;;5047274;28;20193;-57
2022/10/26 04:12:13;;;;;;;2.93;2.40;;;17.50;70.70;;;;;;5043580;28;20834;-57
2022/10/26 04:14:38;;;;;;;4.90;3.10;;;17.60;70.60;;;;;;5046416;28;20673;-57
2022/10/26 04:17:04;;;;;;;8.30;2.90;;;17.50;70.50;;;;;;5041269;28;20357;-57
2022/10/26 04:19:29;;;;;;;4.17;2.60;;;17.60;70.60;;;;;;5045809;28;20232;-58
2022/10/26 04:21:55;;;;;;;5.73;3.50;;;17.70;70.00;;;;;;5047823;28;20227;-58
2022/10/26 04:24:21;;;;;;;6.33;2.57;;;17.70;70.00;;;;;;5043578;28;20636;-58
2022/10/26 04:26:46;;;;;;;7.40;2.67;;;17.80;69.70;;;;;;5046155;28;20602;-57
2022/10/26 04:29:12;;;;;;;9.03;2.97;;;17.80;69.50;;;;;;5041880;28;20201;-57
2022/10/26 04:31:38;;;;;;;6.73;3.17;;;17.90;69.20;;;;;;5040311;28;20282;-58
2022/10/26 04:34:03;;;;;;;4.60;2.80;;;17.90;69.60;;;;;;5045868;28;20525;-57
2022/10/26 04:36:30;;;;;;;6.20;2.90;;;17.80;69.60;;;;;;5045728;28;20236;-58
2022/10/26 04:38:55;;;;;;;2.83;2.50;;;17.90;69.70;;;;;;5044685;28;20694;-57
2022/10/26 04:41:21;;;;;;;3.77;2.83;;;17.90;69.40;;;;;;5042103;28;20486;-57
2022/10/26 04:43:46;;;;;;;4.87;3.53;;;17.70;70.40;;;;;;5043542;28;20355;-57
2022/10/26 04:46:13;;;;;;;5.13;3.33;;;17.40;71.40;;;;;;5044641;28;20211;-57
2022/10/26 04:48:39;;;;;;;8.33;3.70;;;17.10;73.20;;;;;;5039023;28;20658;-56
2022/10/26 04:51:04;;;;;;;4.37;3.03;;;17.10;74.10;;;;;;5045666;28;20441;-58
2022/10/26 04:53:30;;;;;;;4.20;2.97;;;17.10;73.80;;;;;;5049150;28;20443;-55
2022/10/26 04:55:57;;;;;;;4.37;2.90;;;17.00;74.30;;;;;;5048514;28;20201;-57
2022/10/26 04:58:23;;;;;;;4.57;2.70;;;17.00;74.80;;;;;;5053468;28;20449;-57
2022/10/26 05:00:48;;;;;;;4.07;2.70;;;17.00;74.70;;;;;;5047173;28;21091;-57
2022/10/26 05:03:14;;;;;;;4.50;2.87;;;17.10;73.70;;;;;;5051034;28;20191;-57
2022/10/26 05:05:40;;;;;;;3.50;2.60;;;17.10;73.70;;;;;;5045005;28;20193;-56
2022/10/26 05:08:05;;;;;;;2.97;2.67;;;17.10;74.00;;;;;;5047442;28;20196;-57
2022/10/26 05:10:31;;;;;;;4.00;2.70;;;17.20;73.60;;;;;;5049628;28;20188;-56
2022/10/26 05:12:58;;;;;;;2.60;2.40;;;17.40;72.30;;;;;;5044264;28;20189;-58
2022/10/26 05:15:25;;;;;;;3.10;2.80;;;17.50;72.90;;;;;;5046232;28;20311;-58
2022/10/26 05:17:59;;;;;;;3.00;2.70;;;17.50;72.30;;;;;;5043097;28;20439;-58
2022/10/26 05:20:29;;;;;;;5.10;3.00;;;17.50;73.60;;;;;;5042930;28;20847;-56
2022/10/26 05:23:00;;;;;;;4.33;3.10;;;17.50;73.00;;;;;;5046263;28;20457;-57
2022/10/26 05:25:26;;;;;;;4.13;2.63;;;17.40;73.20;;;;;;5045437;28;20454;-58
2022/10/26 05:28:00;;;;;;;4.87;3.03;;;17.20;73.80;;;;;;5045634;28;20777;-59
2022/10/26 05:30:27;;;;;;;4.10;2.73;;;17.30;73.90;;;;;;5047495;28;20446;-58
2022/10/26 05:32:57;;;;;;;8.63;2.93;;;17.40;73.40;;;;;;5041399;28;20946;-58
2022/10/26 05:35:24;;;;;;;3.80;3.07;;;17.40;73.20;;;;;;5046075;28;20499;-58
2022/10/26 05:37:50;;;;;;;5.47;3.27;;;17.50;73.40;;;;;;5046870;28;20865;-59
2022/10/26 05:40:16;;;;;;;2.80;2.50;;;17.50;72.80;;;;;;5047329;28;20486;-58
2022/10/26 05:42:42;;;;;;;4.40;2.63;;;17.50;72.80;;;;;;5048257;28;20185;-58
2022/10/26 05:45:08;;;;;;;4.03;2.60;;;17.40;73.00;;;;;;5047026;28;20442;-59
2022/10/26 05:47:41;;;;;;;5.80;2.60;;;17.50;72.70;;;;;;5048348;28;20431;-59
2022/10/26 05:50:08;;;;;;;5.53;2.60;;;17.60;72.70;;;;;;5042921;28;20541;-60
2022/10/26 05:52:41;;;;;;;5.60;3.10;;;17.80;73.10;;;;;;5045379;28;20435;-59
2022/10/26 05:55:11;;;;;;;4.40;2.53;;;18.00;70.20;;;;;;5040747;28;20794;-59
2022/10/26 05:57:37;;;;;;;6.10;2.50;;;18.20;69.20;;;;;;5040365;28;20559;-59
2022/10/26 06:00:16;;;;;;;4.43;2.77;;;18.30;69.20;;;;;;5048031;28;20914;-59
2022/10/26 06:03:07;;;;;;;3.07;2.23;;;18.40;69.50;;;;;;5045976;28;20507;-59
2022/10/26 06:05:40;;;;;;;4.53;2.40;;;18.30;68.70;;;;;;5042978;28;20965;-60
2022/10/26 06:08:10;;;;;;;4.47;2.33;;;18.40;68.00;;;;;;5043686;28;21226;-60
2022/10/26 06:10:36;;;;;;;4.00;2.87;;;18.60;67.40;;;;;;5045683;28;20443;-59
2022/10/26 06:13:02;;;;;;;3.40;2.17;;;18.60;67.00;;;;;;5050065;28;20450;-57
2022/10/26 06:15:33;;;;;;;4.17;2.40;;;18.50;67.90;;;;;;5043423;28;20811;-60
2022/10/26 06:18:27;;;;;;;3.20;2.40;;;18.60;68.20;;;;;;5033851;28;20420;-59
2022/10/26 06:21:18;;;;;;;3.90;2.53;;;18.70;68.40;;;;;;5051537;28;20486;-57
2022/10/26 06:24:01;;;;;;;5.63;2.83;;;19.00;67.90;;;;;;5037776;28;20431;-57
2022/10/26 06:26:41;;;;;;;3.50;2.40;;;19.00;67.20;;;;;;5040061;28;21029;-57
2022/10/26 06:29:09;;;;;;;4.37;2.97;;;18.90;66.80;;;;;;5045063;28;20943;-57
2022/10/26 06:31:35;;;;;;;4.83;2.90;;;18.80;67.10;;;;;;5037218;28;20451;-57
2022/10/26 06:34:00;;;;;;;5.07;2.83;;;19.00;67.00;;;;;;5044328;28;20812;-57
2022/10/26 06:36:28;;;;;;;4.33;2.53;;;19.10;66.40;;;;;;5043958;28;20204;-57
2022/10/26 06:39:01;;;;;;;3.90;2.30;;;19.30;66.20;;;;;;5053305;28;20559;-57
2022/10/26 06:41:29;;;;;;;3.63;2.83;;;19.30;66.10;;;;;;5045814;28;20501;-57
2022/10/26 06:43:55;;;;;;;3.80;2.40;;;19.40;65.60;;;;;;5047228;28;20462;-59
2022/10/26 06:46:45;;;;;;;3.43;2.20;;;19.50;65.50;;;;;;5047878;28;20435;-59
2022/10/26 06:49:31;;;;;;;5.00;3.63;;;19.50;65.80;;;;;;5047998;28;20556;-59
2022/10/26 06:52:01;;;;;;;4.80;2.70;;;19.50;65.50;;;;;;5044320;28;20439;-59
2022/10/26 06:54:45;;;;;;;3.67;2.70;;;19.40;65.10;;;;;;5048352;28;22116;-59
2022/10/26 06:57:13;;;;;;;5.07;2.17;;;19.40;65.60;;;;;;5034676;28;20450;-57
2022/10/26 06:59:42;;;;;;;4.60;2.90;;;19.40;65.80;;;;;;5049265;28;20438;-57
2022/10/26 07:02:10;;;;;;;4.37;2.53;;;19.40;65.90;;;;;;5049583;28;20483;-57
2022/10/26 07:04:36;;;;;;;3.07;2.47;;;19.40;66.10;;;;;;5048032;28;20439;-57
2022/10/26 07:07:01;;;;;;;4.93;2.90;;;19.40;66.10;;;;;;5039050;28;20439;-57
2022/10/26 07:09:27;;;;;;;3.20;2.90;;;19.30;66.20;;;;;;5041900;28;20225;-60
2022/10/26 07:11:53;;;;;;;5.60;2.90;;;19.10;66.30;;;;;;5050548;28;20192;-59
2022/10/26 07:14:18;;;;;;;5.50;2.43;;;19.00;67.00;;;;;;5041485;28;20196;-59
2022/10/26 07:16:44;;;;;;;6.20;2.57;;;19.10;67.40;;;;;;5048943;28;20200;-59
2022/10/26 07:19:09;;;;;;;7.60;2.93;;;19.30;67.40;;;;;;5049686;28;20235;-59
2022/10/26 07:21:35;;;;;;;5.30;2.63;;;19.50;66.40;;;;;;5041487;28;20293;-58
2022/10/26 07:24:00;;;;;;;5.87;3.30;;;19.50;66.00;;;;;;5050339;28;20666;-58
2022/10/26 07:26:26;;;;;;;3.53;2.93;;;19.30;66.00;;;;;;5046830;28;20204;-59
2022/10/26 07:28:52;;;;;;;9.83;3.43;;;19.00;67.90;;;;;;5044593;28;20236;-59
2022/10/26 07:31:17;;;;;;;3.73;2.43;;;19.00;67.90;;;;;;5051489;28;20197;-59
2022/10/26 07:33:44;;;;;;;3.13;2.93;;;19.20;67.90;;;;;;5040382;28;20449;-59
2022/10/26 07:36:10;;;;;;;5.07;2.47;;;19.10;67.70;;;;;;5040220;28;20215;-59
2022/10/26 07:38:36;;;;;;;4.10;3.10;;;19.00;67.90;;;;;;5038432;28;20444;-58
2022/10/26 07:41:02;;;;;;;4.57;2.70;;;19.10;67.70;;;;;;5043793;28;20479;-58
2022/10/26 07:43:28;;;;;;;5.20;2.53;;;19.00;67.20;;;;;;5047648;28;20492;-58
2022/10/26 07:45:54;;;;;;;3.10;2.57;;;19.30;67.00;;;;;;5047480;28;20614;-58
2022/10/26 07:48:20;;;;;;;4.93;2.90;;;19.40;66.20;;;;;;5042453;28;20280;-58
2022/10/26 07:50:45;;;;;;;3.87;3.13;;;19.20;66.80;;;;;;5042142;28;20201;-58
2022/10/26 07:53:11;;;;;;;6.23;2.43;;;19.40;66.90;;;;;;5037373;28;20558;-58
2022/10/26 07:55:36;;;;;;;3.40;2.70;;;19.60;66.60;;;;;;5036136;28;20649;-58
2022/10/26 07:58:02;;;;;;;7.87;2.57;;;19.70;65.90;;;;;;5043859;28;20599;-59
2022/10/26 08:00:28;;;;;;;5.53;2.80;;;19.90;65.50;;;;;;5039059;28;20307;-56
2022/10/26 08:02:54;;;;;;;5.23;2.93;;;20.00;65.10;;;;;;5043761;28;20197;-56
2022/10/26 08:05:20;;;;;;;2.97;2.10;;;20.00;64.70;;;;;;5044944;28;20469;-56
2022/10/26 08:07:46;;;;;;;2.70;2.40;;;20.10;64.90;;;;;;5024235;28;20462;-56
2022/10/26 08:10:12;;;;;;;6.93;3.13;;;20.10;64.80;;;;;;5047373;28;20267;-56
2022/10/26 08:12:38;;;;;;;4.70;3.10;;;20.00;65.10;;;;;;5026149;28;20203;-56
2022/10/26 08:15:05;;;;;;;4.20;3.10;;;20.00;65.30;;;;;;5045074;28;20439;-57
2022/10/26 08:17:30;;;;;;;6.33;3.03;;;20.00;65.50;;;;;;5043692;28;20518;-56
2022/10/26 08:19:56;;;;;;;4.73;3.30;;;20.00;65.40;;;;;;5044215;28;21106;-59
2022/10/26 08:22:21;;;;;;;3.80;2.77;;;20.10;65.10;;;;;;5041621;28;20255;-58
2022/10/26 08:24:47;;;;;;;5.00;2.77;;;20.20;65.20;;;;;;5043861;28;20220;-55
2022/10/26 08:27:13;;;;;;;4.07;2.40;;;20.30;65.30;;;;;;5042516;28;20216;-57
2022/10/26 08:29:40;;;;;;;5.10;2.20;;;20.30;64.60;;;;;;5048219;28;20196;-58
2022/10/26 08:32:05;;;;;;;5.17;2.77;;;20.00;64.60;;;;;;5045209;28;20440;-58
2022/10/26 08:34:31;;;;;;;3.47;2.83;;;19.90;65.00;;;;;;5044043;28;20518;-58
2022/10/26 08:36:56;;;;;;;4.33;2.60;;;19.70;65.60;;;;;;5042388;28;20272;-59
2022/10/26 08:39:22;;;;;;;7.23;3.17;;;19.70;66.10;;;;;;5044203;28;20203;-58
2022/10/26 08:41:55;;;;;;;3.40;2.87;;;19.70;66.40;;;;;;5041310;28;20278;-59
2022/10/26 08:44:26;;;;;;;4.83;3.40;;;19.80;66.30;;;;;;5036888;28;20196;-59
2022/10/26 08:47:02;;;;;;;4.13;3.30;;;19.70;66.20;;;;;;5037257;28;20533;-59
2022/10/26 08:49:54;;;;;;;5.63;3.20;;;19.80;66.70;;;;;;5038084;28;20452;-58
2022/10/26 08:52:28;;;;;;;4.57;3.40;;;19.80;67.00;;;;;;5030683;28;20485;-59
2022/10/26 08:54:56;;;;;;;7.30;3.30;;;19.90;66.80;;;;;;5034697;28;20455;-59
2022/10/26 08:57:26;;;;;;;3.80;3.17;;;20.00;66.50;;;;;;5038366;28;20438;-58
2022/10/26 09:00:03;;;;;;;5.60;2.50;;;19.60;67.20;;;;;;5042187;28;20471;-59
2022/10/26 09:02:29;;;;;;;5.80;2.83;;;19.50;68.30;;;;;;5043130;28;20454;-59
2022/10/26 09:05:00;;;;;;;5.50;3.10;;;19.70;68.10;;;;;;5044551;28;20461;-59
2022/10/26 09:08:04;;;;;;;5.90;2.80;;;19.70;67.80;;;;;;5044833;28;20193;-59
2022/10/26 09:10:39;;;;;;;6.47;3.47;;;19.70;67.70;;;;;;5044299;28;20512;-59
2022/10/26 09:13:24;;;;;;;6.30;3.07;;;19.70;68.10;;;;;;5038303;28;20993;-58
2022/10/26 09:16:18;;;;;;;4.67;3.03;;;19.70;68.00;;;;;;5039068;28;20600;-59
2022/10/26 09:18:48;;;;;;;4.33;2.83;;;19.90;67.90;;;;;;5042202;28;20444;-57
2022/10/26 09:21:37;;;;;;;4.83;2.67;;;20.10;66.90;;;;;;5032303;28;20537;-59
2022/10/26 09:24:26;;;;;;;8.13;3.53;;;20.10;67.00;;;;;;5046779;28;20831;-58
2022/10/26 09:27:10;;;;;;;4.13;3.30;;;20.20;66.70;;;;;;5031853;28;20921;-59
2022/10/26 09:29:40;;;;;;;9.33;4.40;;;20.40;66.40;;;;;;5047718;28;20451;-59
2022/10/26 09:32:33;;;;;;;6.63;4.70;;;20.50;66.60;;;;;;5042763;28;20436;-58
2022/10/26 09:35:03;;;;;;;3.27;2.63;;;20.80;66.80;;;;;;5028376;28;20539;-58
2022/10/26 09:37:39;;;;;;;4.57;2.70;;;21.10;66.00;;;;;;5045038;28;20505;-58
2022/10/26 09:40:12;;;;;;;3.33;3.03;;;21.30;65.30;;;;;;5046618;28;20450;-58
2022/10/26 09:42:56;;;;;;;3.43;2.50;;;21.50;64.50;;;;;;5049473;28;20439;-59
2022/10/26 09:45:35;;;;;;;5.73;2.60;;;21.70;64.00;;;;;;5050187;28;20851;-58
2022/10/26 09:48:15;;;;;;;5.67;2.73;;;21.80;62.60;;;;;;5049457;28;20457;-59
2022/10/26 09:50:45;;;;;;;3.17;2.87;;;21.90;61.40;;;;;;5046123;28;20519;-59
2022/10/26 09:53:11;;;;;;;3.60;2.60;;;22.00;62.10;;;;;;5048058;28;20466;-58
2022/10/26 09:56:07;;;;;;;6.23;3.07;;;22.00;61.10;;;;;;5048287;28;20439;-58
2022/10/26 09:58:46;;;;;;;6.03;3.30;;;22.20;61.70;;;;;;5044191;28;20859;-58
2022/10/26 10:01:31;;;;;;;4.73;3.20;;;22.40;61.60;;;;;;5043365;28;20607;-58
2022/10/26 10:04:12;;;;;;;5.03;2.40;;;22.60;60.80;;;;;;5044385;28;20462;-58
2022/10/26 10:06:42;;;;;;;4.00;3.20;;;22.90;60.90;;;;;;5048515;28;20490;-58
2022/10/26 10:09:10;;;;;;;5.80;2.70;;;23.10;59.50;;;;;;5043881;28;20447;-58
2022/10/26 10:11:44;;;;;;;5.03;2.60;;;23.20;58.10;;;;;;5050476;28;20499;-58
2022/10/26 10:14:16;;;;;;;5.87;3.40;;;23.20;59.10;;;;;;5047869;28;20443;-59
2022/10/26 10:16:50;;;;;;;3.97;2.30;;;23.40;59.40;;;;;;5049730;28;20439;-57
2022/10/26 10:19:28;;;;;;;6.97;2.30;;;23.50;58.80;;;;;;5046052;28;20534;-57
2022/10/26 10:21:57;;;;;;;6.83;2.77;;;23.60;58.70;;;;;;5048439;28;20834;-58
2022/10/26 10:24:24;;;;;;;4.83;3.00;;;23.50;58.40;;;;;;5046573;28;20446;-58
2022/10/26 10:27:14;;;;;;;4.10;2.60;;;23.40;58.60;;;;;;5049077;28;20934;-57
2022/10/26 10:29:44;;;;;;;4.20;3.10;;;23.40;58.50;;;;;;5050640;28;20454;-58
2022/10/26 10:32:19;;;;;;;7.33;2.93;;;23.60;57.60;;;;;;5043470;28;20523;-57
2022/10/26 10:34:46;;;;;;;3.90;2.77;;;23.70;58.20;;;;;;5048125;28;20528;-57
2022/10/26 10:37:34;;;;;;;3.77;2.40;;;23.80;58.00;;;;;;5049174;28;20497;-57
2022/10/26 10:40:13;;;;;;;4.33;2.40;;;23.90;58.20;;;;;;5037702;28;20883;-58
2022/10/26 10:42:41;;;;;;;3.83;2.80;;;23.80;58.30;;;;;;5047470;28;20447;-58
2022/10/26 10:45:18;;;;;;;7.30;3.00;;;23.90;58.00;;;;;;5045429;28;20811;-58
2022/10/26 10:48:17;;;;;;;4.63;3.20;;;23.90;57.60;;;;;;5046164;28;20808;-57
2022/10/26 10:50:51;;;;;;;3.70;2.43;;;24.00;58.10;;;;;;5041124;28;20447;-55
2022/10/26 10:53:29;;;;;;;6.73;2.90;;;24.30;57.90;;;;;;5038688;28;20447;-55
2022/10/26 10:56:12;;;;;;;5.53;2.80;;;24.50;56.70;;;;;;5049619;28;20457;-53
2022/10/26 10:58:38;;;;;;;7.03;2.40;;;24.50;56.50;;;;;;5051408;28;20443;-54
2022/10/26 11:01:06;;;;;;;2.80;2.33;;;24.70;56.30;;;;;;5042983;28;20479;-54
2022/10/26 11:03:53;;;;;;;3.20;2.00;;;24.90;56.20;;;;;;5041397;28;20188;-55
2022/10/26 11:06:22;;;;;;;10.83;3.00;;;25.00;55.80;;;;;;5049923;28;20443;-55
2022/10/26 11:09:11;;;;;;;4.30;2.17;;;25.00;55.80;;;;;;5045381;28;20450;-52
2022/10/26 11:11:49;;;;;;;4.70;2.40;;;25.00;55.50;;;;;;5049125;28;20918;-54
2022/10/26 11:14:22;;;;;;;3.83;2.60;;;25.00;54.30;;;;;;5045858;28;20492;-54
2022/10/26 11:17:19;;;;;;;4.70;2.30;;;24.80;54.90;;;;;;5046900;28;20450;-54
2022/10/26 11:19:57;;;;;;;6.07;2.23;;;24.80;54.60;;;;;;5032835;28;20459;-54
2022/10/26 11:22:40;;;;;;;3.80;2.20;;;24.80;55.00;;;;;;5047169;28;20489;-54
2022/10/26 11:25:14;;;;;;;4.67;2.40;;;24.80;54.30;;;;;;5047324;28;20435;-54
2022/10/26 11:27:50;;;;;;;4.50;2.53;;;25.00;54.30;;;;;;5036867;28;20518;-54
2022/10/26 11:30:21;;;;;;;6.30;2.50;;;25.10;54.00;;;;;;5045142;28;20939;-54
2022/10/26 11:32:55;;;;;;;6.80;2.67;;;25.40;54.30;;;;;;5035626;28;20444;-54
2022/10/26 11:35:59;;;;;;;3.40;1.97;;;25.40;53.20;;;;;;5043391;28;20444;-53
2022/10/26 11:38:30;;;;;;;3.07;2.43;;;25.30;52.40;;;;;;5045430;28;20474;-54
2022/10/26 11:41:37;;;;;;;5.03;2.23;;;25.30;52.90;;;;;;5051615;28;20482;-54
2022/10/26 11:44:21;;;;;;;5.03;2.40;;;25.40;52.70;;;;;;5048936;28;20446;-54
2022/10/26 11:46:58;;;;;;;11.47;3.00;;;25.40;52.40;;;;;;5047794;28;20453;-54
2022/10/26 11:49:36;;;;;;;2.53;1.90;;;25.20;52.70;;;;;;5046082;28;20461;-55
2022/10/26 11:52:27;;;;;;;5.97;2.67;;;25.20;53.20;;;;;;5037915;28;20466;-55
2022/10/26 11:54:55;;;;;;;3.90;1.87;;;25.30;52.60;;;;;;5042109;28;20463;-57
2022/10/26 11:57:23;;;;;;;6.17;2.20;;;25.50;52.80;;;;;;5041673;28;20486;-56
2022/10/26 12:00:00;;;;;;;4.83;2.20;;;25.30;51.80;;;;;;5041028;28;20478;-57
2022/10/26 12:02:25;;;;;;;7.70;2.23;;;25.40;51.80;;;;;;5037992;28;20491;-57
2022/10/26 12:04:56;;;;;;;10.20;2.40;;;25.30;51.60;;;;;;5047067;28;20438;-57
2022/10/26 12:07:29;;;;;;;3.80;2.53;;;25.20;51.20;;;;;;5047725;28;21010;-57
2022/10/26 12:09:56;;;;;;;3.43;2.20;;;25.10;52.00;;;;;;5043587;28;20457;-57
2022/10/26 12:12:33;;;;;;;5.40;2.60;;;25.20;52.20;;;;;;5041223;28;20435;-57
2022/10/26 12:15:17;;;;;;;8.20;2.50;;;25.40;52.20;;;;;;5043795;28;20461;-57
2022/10/26 12:18:15;;;;;;;3.50;2.20;;;25.50;51.20;;;;;;5047023;28;20889;-57
2022/10/26 12:20:52;;;;;;;4.80;2.40;;;25.70;51.10;;;;;;5036280;28;20522;-58
2022/10/26 12:23:18;;;;;;;6.83;2.87;;;25.80;50.90;;;;;;5042456;28;20848;-58
2022/10/26 12:25:43;;;;;;;2.20;1.80;;;25.80;51.30;;;;;;5044860;28;20451;-57
2022/10/26 12:28:39;;;;;;;12.13;2.73;;;25.90;51.60;;;;;;5048821;28;20195;-57
2022/10/26 12:31:30;;;;;;;3.67;1.90;;;25.70;51.00;;;;;;5046177;28;20204;-57
2022/10/26 12:33:55;;;;;;;2.73;2.17;;;25.90;50.60;;;;;;5042908;28;20890;-57
2022/10/26 12:37:05;;;;;;;3.87;1.87;;;25.90;51.00;;;;;;5043595;28;20446;-57
2022/10/26 12:39:36;;;;;;;3.93;2.30;;;25.90;50.80;;;;;;5043750;28;20670;-57
2022/10/26 12:42:04;;;;;;;3.60;2.00;;;26.00;50.80;;;;;;5042657;28;20497;-57
2022/10/26 12:44:34;;;;;;;4.33;1.60;;;26.20;51.20;;;;;;5025281;28;20691;-57
2022/10/26 12:47:00;;;;;;;5.97;2.00;;;26.20;50.10;;;;;;5045270;28;20436;-57
2022/10/26 12:50:03;;;;;;;2.93;1.77;;;26.10;50.00;;;;;;5043120;28;20472;-57
2022/10/26 12:52:47;;;;;;;3.20;1.80;;;26.20;50.20;;;;;;5042972;28;20193;-57
2022/10/26 12:55:28;;;;;;;3.50;1.70;;;26.20;49.80;;;;;;5048732;28;20443;-57
2022/10/26 12:58:09;;;;;;;3.60;2.10;;;26.30;49.60;;;;;;5041866;28;20617;-57
2022/10/26 13:00:43;;;;;;;3.07;1.70;;;26.30;49.80;;;;;;5039265;28;20471;-57
2022/10/26 13:03:33;;;;;;;2.67;1.93;;;26.40;50.10;;;;;;5047362;28;20454;-65
2022/10/26 13:06:14;;;;;;;8.33;3.07;;;26.40;50.80;;;;;;5043001;28;20462;-59
2022/10/26 13:08:41;;;;;;;4.23;1.93;;;26.40;50.70;;;;;;5041032;28;20508;-59
2022/10/26 13:11:21;;;;;;;3.93;1.60;;;26.40;50.60;;;;;;5046249;28;21020;-59